This is the latest recevied weather packets stored in our database for station/object W5HKR. If no packets are shown the sender has not sent any weather packets the latest 10 day(s).
| Time | Temp. | Humidity | Pressure | Rain* | Wind** | Luminosity | Snow |
|---|---|---|---|---|---|---|---|
| 1777341808 | 27.22° C | 78% | 981.7 hPa | 0 mm | - | - | - |
| 1777341507 | 27.78° C | 78% | 981.7 hPa | 0 mm | - | - | - |
| 1777341207 | 18.33° C | 91% | 990.6 hPa | 0 mm | - | - | - |
| 1777340908 | 27.78° C | 77% | 981.7 hPa | 0 mm | - | - | - |
| 1777340800 | 18.33° C | 91% | 990.6 hPa | 0 mm | - | - | - |
| 1777340609 | 18.33° C | 91% | 990.6 hPa | 0 mm | - | - | - |
| 1777340308 | 27.78° C | 77% | 981.1 hPa | 0 mm | - | - | - |
| 1777340008 | 28.33° C | 77% | 981.4 hPa | 0 mm | - | - | - |
| 1777339708 | 28.33° C | 76% | 981.3 hPa | 0 mm | - | - | - |
| 1777339409 | 18.33° C | 91% | 990.6 hPa | 0 mm | - | - | - |
| 1777339108 | 18.33° C | 91% | 990.6 hPa | 0 mm | - | - | - |
| 1777338808 | 18.33° C | 91% | 990.6 hPa | 0 mm | - | - | - |
| 1777338639 | 28.89° C | 75% | 980.9 hPa | 0 mm | - | - | - |
| 1777338510 | 18.33° C | 91% | 990.6 hPa | 0 mm | - | - | - |
| 1777338209 | 28.89° C | 74% | 980.7 hPa | 0 mm | - | - | - |
| 1777337908 | 18.33° C | 91% | 990.6 hPa | 0 mm | - | - | - |
| 1777337608 | 29.44° C | 73% | 981 hPa | 0 mm | - | - | - |
| 1777337560 | 29.44° C | 73% | 981 hPa | 0 mm | - | - | - |
| 1777337308 | 29.44° C | 73% | 980.7 hPa | 0 mm | - | - | - |
| 1777337008 | 29.44° C | 72% | 980.8 hPa | 0 mm | - | - | - |
| 1777336707 | 29.44° C | 72% | 980.7 hPa | 0 mm | - | - | - |
| 1777336479 | 18.33° C | 91% | 990.6 hPa | 0 mm | - | - | - |
| 1777336408 | 18.33° C | 91% | 990.6 hPa | 0 mm | - | - | - |
| 1777336109 | 30° C | 71% | 980.4 hPa | 0 mm | - | - | - |
| 1777335809 | 18.33° C | 91% | 990.6 hPa | 0 mm | - | - | - |
* Rain latest hour (hover to see other rain measurements)
** Current wind speed in m/s (hover to see current wind gust speed)